Time;durP1;ratioP1;P1;durP2;ratioP2;P2;SDS_P1;SDS_P2;PMS_P1;PMS_P2;Temp;Humidity;BMP_temperature;BMP_pressure;BME280_temperature;BME280_humidity;BME280_pressure;Samples;Min_cycle;Max_cycle;Signal;HPM_P1;HPM_P2
2023/07/18 00:01:49;;;;;;;6.90;2.20;;;;;;;;;;5030883;28;20359;-73
2023/07/18 00:04:15;;;;;;;5.17;2.17;;;;;;;;;;5031760;28;20017;-72
2023/07/18 00:06:41;;;;;;;4.78;2.30;;;;;;;;;;5031325;28;20268;-72
2023/07/18 00:09:07;;;;;;;4.70;2.20;;;;;;;;;;5028050;28;20037;-72
2023/07/18 00:11:32;;;;;;;5.60;2.45;;;;;;;;;;5024816;28;20036;-72
2023/07/18 00:13:58;;;;;;;4.95;2.50;;;;;;;;;;5028463;28;20029;-73
2023/07/18 00:16:23;;;;;;;6.07;2.17;;;;;;;;;;5027449;28;20021;-73
2023/07/18 00:18:50;;;;;;;5.20;2.30;;;;;;;;;;5029860;28;20037;-73
2023/07/18 00:21:15;;;;;;;9.15;2.38;;;;;;;;;;5031498;28;20048;-73
2023/07/18 00:23:41;;;;;;;6.05;2.63;;;;;;;;;;5031320;28;20755;-73
2023/07/18 00:26:06;;;;;;;4.67;2.30;;;;;;;;;;5028880;28;20025;-72
2023/07/18 00:28:31;;;;;;;4.95;2.22;;;;;;;;;;5029662;28;20318;-73
2023/07/18 00:30:57;;;;;;;6.38;2.20;;;;;;;;;;5028542;28;20029;-72
2023/07/18 00:33:23;;;;;;;5.10;2.47;;;;;;;;;;5028054;28;20021;-72
2023/07/18 00:35:49;;;;;;;4.30;2.17;;;;;;;;;;5029116;28;20425;-72
2023/07/18 00:38:14;;;;;;;4.03;2.00;;;;;;;;;;5023372;28;20099;-72
2023/07/18 00:40:41;;;;;;;8.53;2.67;;;;;;;;;;5026601;28;20111;-72
2023/07/18 00:43:12;;;;;;;6.13;2.90;;;;;;;;;;5027459;28;20321;-72
2023/07/18 00:45:37;;;;;;;7.97;3.22;;;;;;;;;;5031213;28;20032;-73
2023/07/18 00:48:02;;;;;;;8.23;2.72;;;;;;;;;;5031525;28;20017;-72
2023/07/18 00:50:28;;;;;;;6.35;2.63;;;;;;;;;;5028218;28;20047;-72
2023/07/18 00:52:53;;;;;;;6.75;2.50;;;;;;;;;;5029888;28;20402;-72
2023/07/18 00:55:18;;;;;;;4.07;2.22;;;;;;;;;;5031114;28;20026;-72
2023/07/18 00:57:44;;;;;;;4.97;2.13;;;;;;;;;;5029397;28;20023;-72
2023/07/18 01:00:13;;;;;;;4.68;2.05;;;;;;;;;;5027796;28;20120;-73
2023/07/18 01:02:40;;;;;;;7.65;2.95;;;;;;;;;;5030057;28;20045;-73
2023/07/18 01:05:06;;;;;;;6.60;3.05;;;;;;;;;;5030902;28;20431;-73
2023/07/18 01:07:32;;;;;;;3.85;1.83;;;;;;;;;;5030205;28;20548;-72
2023/07/18 01:10:16;;;;;;;10.82;2.50;;;;;;;;;;5031779;28;20029;-72
2023/07/18 01:12:42;;;;;;;5.75;2.40;;;;;;;;;;5031209;28;20506;-73
2023/07/18 01:15:08;;;;;;;7.15;2.53;;;;;;;;;;5030467;28;20029;-73
2023/07/18 01:17:33;;;;;;;3.72;1.85;;;;;;;;;;5024924;28;20025;-72
2023/07/18 01:19:58;;;;;;;7.93;2.42;;;;;;;;;;5026392;28;20356;-72
2023/07/18 01:22:23;;;;;;;5.30;2.20;;;;;;;;;;5026673;28;20096;-72
2023/07/18 01:24:49;;;;;;;8.13;2.77;;;;;;;;;;5027103;28;20382;-72
2023/07/18 01:27:14;;;;;;;5.70;2.93;;;;;;;;;;5028229;28;20749;-72
2023/07/18 01:29:39;;;;;;;9.20;2.67;;;;;;;;;;5026249;28;20275;-72
2023/07/18 01:32:04;;;;;;;5.78;2.15;;;;;;;;;;5028198;28;20363;-72
2023/07/18 01:34:29;;;;;;;5.85;2.65;;;;;;;;;;5026911;28;20032;-73
2023/07/18 01:36:55;;;;;;;7.77;2.67;;;;;;;;;;5029302;28;20030;-73
2023/07/18 01:39:20;;;;;;;6.13;2.60;;;;;;;;;;5027693;28;20292;-73
2023/07/18 01:41:45;;;;;;;4.37;2.10;;;;;;;;;;5028210;28;20284;-73
2023/07/18 01:44:10;;;;;;;4.57;2.33;;;;;;;;;;5028618;28;20268;-73
2023/07/18 01:46:35;;;;;;;8.13;2.67;;;;;;;;;;5030101;28;20525;-73
2023/07/18 01:49:01;;;;;;;4.73;2.27;;;;;;;;;;5028524;28;20264;-73
2023/07/18 01:51:26;;;;;;;6.73;2.50;;;;;;;;;;5030215;28;20252;-73
2023/07/18 01:53:51;;;;;;;6.70;2.17;;;;;;;;;;5029502;28;20646;-73
2023/07/18 01:56:16;;;;;;;8.50;3.13;;;;;;;;;;5030331;28;20017;-73
2023/07/18 01:58:43;;;;;;;5.60;2.50;;;;;;;;;;5028750;28;20264;-73
2023/07/18 02:01:09;;;;;;;4.68;2.10;;;;;;;;;;5031253;28;20276;-72
2023/07/18 02:03:35;;;;;;;4.07;2.47;;;;;;;;;;5029053;28;20017;-72
2023/07/18 02:06:00;;;;;;;6.75;2.30;;;;;;;;;;5032909;28;20029;-72
2023/07/18 02:08:26;;;;;;;7.53;2.30;;;;;;;;;;5030148;28;20096;-73
2023/07/18 02:10:51;;;;;;;6.27;2.40;;;;;;;;;;5025856;28;20051;-72
2023/07/18 02:13:16;;;;;;;7.55;2.00;;;;;;;;;;5019516;28;20276;-72
2023/07/18 02:15:42;;;;;;;5.72;2.40;;;;;;;;;;5029628;28;20509;-73
2023/07/18 02:18:07;;;;;;;4.28;2.70;;;;;;;;;;5031477;28;20100;-72
2023/07/18 02:20:32;;;;;;;6.93;2.40;;;;;;;;;;5028067;28;20013;-72
2023/07/18 02:23:00;;;;;;;5.30;2.87;;;;;;;;;;5030154;28;20609;-73
2023/07/18 02:25:26;;;;;;;7.47;2.50;;;;;;;;;;5024892;28;20362;-73
2023/07/18 02:27:51;;;;;;;6.72;2.67;;;;;;;;;;5025165;28;20665;-72
2023/07/18 02:30:17;;;;;;;9.98;2.60;;;;;;;;;;5027755;28;20101;-72
2023/07/18 02:32:42;;;;;;;7.67;2.17;;;;;;;;;;5026911;28;21304;-73
2023/07/18 02:35:08;;;;;;;4.25;1.90;;;;;;;;;;5025826;28;20394;-73
2023/07/18 02:37:34;;;;;;;4.72;2.30;;;;;;;;;;5025717;28;20014;-72
2023/07/18 02:39:59;;;;;;;4.53;2.30;;;;;;;;;;5025780;28;20024;-72
2023/07/18 02:42:24;;;;;;;5.70;2.30;;;;;;;;;;5025489;28;20079;-72
2023/07/18 02:44:49;;;;;;;14.80;4.00;;;;;;;;;;5026430;28;20033;-72
2023/07/18 02:47:15;;;;;;;6.53;2.33;;;;;;;;;;5025720;28;20276;-72
2023/07/18 02:49:40;;;;;;;3.75;2.10;;;;;;;;;;5026482;28;20033;-72
2023/07/18 02:52:06;;;;;;;5.55;2.03;;;;;;;;;;5026403;28;20387;-72
2023/07/18 02:54:31;;;;;;;5.38;2.28;;;;;;;;;;5026693;28;20060;-72
2023/07/18 02:56:56;;;;;;;6.85;1.85;;;;;;;;;;5026495;28;20385;-72
2023/07/18 02:59:22;;;;;;;3.65;1.92;;;;;;;;;;5029704;28;20380;-72
2023/07/18 03:01:54;;;;;;;7.32;2.53;;;;;;;;;;5032201;28;20029;-72
2023/07/18 03:04:19;;;;;;;5.55;2.53;;;;;;;;;;5030551;28;20506;-72
2023/07/18 03:06:45;;;;;;;7.15;2.40;;;;;;;;;;5033892;28;20033;-72
2023/07/18 03:09:11;;;;;;;5.47;2.28;;;;;;;;;;5033656;28;20409;-73
2023/07/18 03:11:36;;;;;;;7.65;2.80;;;;;;;;;;5031079;28;20025;-73
2023/07/18 03:14:01;;;;;;;5.30;2.38;;;;;;;;;;5030702;28;20120;-73
2023/07/18 03:16:26;;;;;;;5.83;2.77;;;;;;;;;;5029084;28;20025;-73
2023/07/18 03:18:54;;;;;;;7.30;2.53;;;;;;;;;;5028646;28;20359;-73
2023/07/18 03:21:19;;;;;;;7.13;2.88;;;;;;;;;;5030822;28;20267;-73
2023/07/18 03:23:44;;;;;;;6.10;2.78;;;;;;;;;;5032839;28;20026;-73
2023/07/18 03:26:09;;;;;;;4.70;2.50;;;;;;;;;;5036891;28;20075;-73
2023/07/18 03:28:34;;;;;;;7.23;2.80;;;;;;;;;;5033825;28;20322;-73
2023/07/18 03:31:00;;;;;;;8.80;2.40;;;;;;;;;;5033229;28;20280;-72
2023/07/18 03:33:25;;;;;;;4.82;2.25;;;;;;;;;;5030561;28;20021;-73
2023/07/18 03:35:50;;;;;;;7.60;2.47;;;;;;;;;;5029692;28;20029;-73
2023/07/18 03:38:15;;;;;;;10.40;2.90;;;;;;;;;;5032709;28;20083;-73
2023/07/18 03:40:41;;;;;;;5.70;2.00;;;;;;;;;;5034269;28;20382;-73
2023/07/18 03:43:06;;;;;;;7.82;2.38;;;;;;;;;;5033031;28;20264;-73
2023/07/18 03:45:31;;;;;;;7.43;2.65;;;;;;;;;;5034369;28;20029;-73
2023/07/18 03:47:57;;;;;;;7.57;2.80;;;;;;;;;;5032875;28;20025;-73
2023/07/18 03:50:22;;;;;;;7.57;2.40;;;;;;;;;;5029632;28;20304;-72
2023/07/18 03:52:47;;;;;;;8.60;2.58;;;;;;;;;;5025447;28;20112;-72
2023/07/18 03:55:12;;;;;;;7.20;3.15;;;;;;;;;;5028625;28;20029;-72
2023/07/18 03:57:38;;;;;;;9.80;2.72;;;;;;;;;;5030627;28;20025;-73
2023/07/18 04:00:12;;;;;;;5.38;2.42;;;;;;;;;;5031062;28;20017;-73
2023/07/18 04:02:37;;;;;;;6.35;2.45;;;;;;;;;;5025883;28;20029;-72
2023/07/18 04:05:02;;;;;;;6.47;2.70;;;;;;;;;;5026306;28;20026;-72
2023/07/18 04:07:28;;;;;;;5.80;3.05;;;;;;;;;;5030312;28;20578;-72
2023/07/18 04:09:53;;;;;;;6.70;2.40;;;;;;;;;;5026290;28;20056;-72
2023/07/18 04:12:18;;;;;;;5.53;2.50;;;;;;;;;;5027672;28;20272;-72
2023/07/18 04:14:43;;;;;;;7.13;2.30;;;;;;;;;;5026610;28;20799;-73
2023/07/18 04:17:09;;;;;;;12.88;2.40;;;;;;;;;;5028058;28;20355;-73
2023/07/18 04:19:34;;;;;;;6.57;2.65;;;;;;;;;;5028848;28;20026;-73
2023/07/18 04:21:59;;;;;;;4.03;2.10;;;;;;;;;;5026186;28;20051;-73
2023/07/18 04:24:24;;;;;;;5.55;2.75;;;;;;;;;;5026476;28;20036;-73
2023/07/18 04:26:50;;;;;;;10.80;3.13;;;;;;;;;;5030750;28;20450;-73
2023/07/18 04:29:15;;;;;;;9.68;2.65;;;;;;;;;;5025655;28;20455;-73
2023/07/18 04:31:41;;;;;;;7.53;2.88;;;;;;;;;;5026631;28;20021;-72
2023/07/18 04:34:06;;;;;;;7.35;2.22;;;;;;;;;;5027710;28;20030;-73
2023/07/18 04:36:33;;;;;;;5.97;2.23;;;;;;;;;;5026735;28;20075;-73
2023/07/18 04:38:58;;;;;;;9.40;2.72;;;;;;;;;;5027016;28;20272;-73
2023/07/18 04:41:23;;;;;;;7.72;2.97;;;;;;;;;;5029526;28;20438;-73
2023/07/18 04:43:48;;;;;;;6.22;2.65;;;;;;;;;;5028976;28;20083;-73
2023/07/18 04:46:14;;;;;;;10.05;2.53;;;;;;;;;;5025497;28;20029;-73
2023/07/18 04:48:40;;;;;;;5.13;2.38;;;;;;;;;;5029984;28;20108;-73
2023/07/18 04:51:05;;;;;;;9.82;3.03;;;;;;;;;;5027225;28;20033;-73
2023/07/18 04:53:33;;;;;;;6.60;2.50;;;;;;;;;;5032141;28;20359;-73
2023/07/18 04:55:59;;;;;;;6.18;2.63;;;;;;;;;;5030574;28;20029;-72
2023/07/18 04:58:25;;;;;;;6.43;2.65;;;;;;;;;;5029829;28;20090;-72
2023/07/18 05:00:51;;;;;;;6.22;2.40;;;;;;;;;;5027471;28;21308;-73
2023/07/18 05:03:16;;;;;;;7.07;2.63;;;;;;;;;;5028469;28;20483;-73
2023/07/18 05:05:42;;;;;;;9.45;2.72;;;;;;;;;;5029673;28;20067;-72
2023/07/18 05:08:07;;;;;;;6.32;2.50;;;;;;;;;;5030899;28;20021;-72
2023/07/18 05:10:32;;;;;;;6.40;2.13;;;;;;;;;;5030121;28;20048;-72
2023/07/18 05:12:57;;;;;;;6.23;2.50;;;;;;;;;;5027273;28;20282;-72
2023/07/18 05:15:23;;;;;;;8.05;2.30;;;;;;;;;;5027757;28;20367;-72
2023/07/18 05:17:49;;;;;;;4.72;2.42;;;;;;;;;;5029149;28;20091;-72
2023/07/18 05:20:14;;;;;;;5.75;1.83;;;;;;;;;;5024866;28;20043;-72
2023/07/18 05:22:40;;;;;;;5.75;1.95;;;;;;;;;;5024560;28;20029;-72
2023/07/18 05:25:10;;;;;;;4.20;2.42;;;;;;;;;;5020972;28;20066;-72
2023/07/18 05:27:35;;;;;;;6.07;2.63;;;;;;;;;;5022109;28;20021;-72
2023/07/18 05:30:00;;;;;;;6.83;2.40;;;;;;;;;;5023351;28;20027;-72
2023/07/18 05:32:26;;;;;;;6.57;2.40;;;;;;;;;;5025326;28;20272;-72
2023/07/18 05:34:51;;;;;;;6.40;2.30;;;;;;;;;;5023980;28;20033;-72
2023/07/18 05:37:16;;;;;;;6.50;2.28;;;;;;;;;;5022325;28;20391;-72
2023/07/18 05:39:41;;;;;;;5.50;2.25;;;;;;;;;;5022114;28;20075;-73
2023/07/18 05:42:07;;;;;;;9.83;2.37;;;;;;;;;;5025148;28;20064;-72
2023/07/18 05:44:32;;;;;;;13.05;2.15;;;;;;;;;;5022524;28;20773;-72
2023/07/18 05:46:58;;;;;;;4.53;2.05;;;;;;;;;;5023584;28;20026;-72
2023/07/18 05:49:23;;;;;;;6.20;2.58;;;;;;;;;;5024358;28;20052;-72
2023/07/18 05:51:48;;;;;;;6.05;2.30;;;;;;;;;;5027281;28;20029;-72
2023/07/18 05:54:14;;;;;;;4.47;2.10;;;;;;;;;;5023063;28;20037;-72
2023/07/18 05:56:39;;;;;;;12.23;2.65;;;;;;;;;;5024978;28;20268;-72
2023/07/18 05:59:06;;;;;;;6.50;2.70;;;;;;;;;;5027828;28;20093;-72
2023/07/18 06:01:32;;;;;;;5.70;2.50;;;;;;;;;;5026669;28;20072;-72
2023/07/18 06:03:57;;;;;;;8.57;3.13;;;;;;;;;;5024665;28;20013;-72
2023/07/18 06:06:23;;;;;;;8.13;1.92;;;;;;;;;;5029550;28;20023;-72
2023/07/18 06:08:48;;;;;;;10.60;2.58;;;;;;;;;;5026698;28;20036;-72
2023/07/18 06:11:13;;;;;;;4.55;1.67;;;;;;;;;;5029118;28;20031;-72
2023/07/18 06:13:41;;;;;;;4.50;1.90;;;;;;;;;;5026417;28;20044;-71
2023/07/18 06:16:06;;;;;;;8.82;2.53;;;;;;;;;;5017062;28;20310;-71
2023/07/18 06:18:31;;;;;;;5.22;2.00;;;;;;;;;;5025830;28;20477;-72
2023/07/18 06:20:56;;;;;;;5.30;2.17;;;;;;;;;;5022382;28;20045;-72
2023/07/18 06:23:21;;;;;;;5.47;2.40;;;;;;;;;;5029688;28;20097;-71
2023/07/18 06:25:47;;;;;;;12.97;3.63;;;;;;;;;;5027251;28;20282;-72
2023/07/18 06:28:12;;;;;;;7.50;2.33;;;;;;;;;;5023518;28;20277;-72
2023/07/18 06:30:37;;;;;;;5.63;2.40;;;;;;;;;;5027562;28;20372;-72
2023/07/18 06:33:02;;;;;;;5.50;2.20;;;;;;;;;;5029463;28;20793;-73
2023/07/18 06:35:28;;;;;;;4.78;2.10;;;;;;;;;;5032153;28;20299;-73
2023/07/18 06:37:53;;;;;;;11.88;2.08;;;;;;;;;;5030952;28;20017;-73
2023/07/18 06:40:19;;;;;;;7.22;2.42;;;;;;;;;;5031912;28;20021;-72
2023/07/18 06:42:44;;;;;;;8.13;2.20;;;;;;;;;;5025066;28;20020;-72
2023/07/18 06:45:09;;;;;;;6.60;2.00;;;;;;;;;;5028274;28;20024;-72
2023/07/18 06:47:35;;;;;;;4.10;2.25;;;;;;;;;;5030629;28;20545;-72
2023/07/18 06:50:00;;;;;;;5.65;2.47;;;;;;;;;;5030171;28;20108;-72
2023/07/18 06:52:26;;;;;;;5.93;2.33;;;;;;;;;;5028013;28;20356;-72
2023/07/18 06:54:53;;;;;;;5.40;2.42;;;;;;;;;;5033050;28;20040;-72
2023/07/18 06:57:18;;;;;;;9.00;1.92;;;;;;;;;;5026264;28;20458;-72
2023/07/18 06:59:43;;;;;;;4.65;2.13;;;;;;;;;;5018185;28;20025;-73
2023/07/18 07:02:10;;;;;;;3.35;1.83;;;;;;;;;;5026697;28;20816;-72
2023/07/18 07:04:36;;;;;;;3.35;1.90;;;;;;;;;;5030752;28;20014;-72
2023/07/18 07:07:02;;;;;;;9.52;1.55;;;;;;;;;;5032612;28;20026;-72
2023/07/18 07:09:27;;;;;;;3.83;1.90;;;;;;;;;;5027872;28;20033;-72
2023/07/18 07:11:52;;;;;;;6.60;2.10;;;;;;;;;;5027041;28;20105;-72
2023/07/18 07:14:17;;;;;;;3.23;1.50;;;;;;;;;;5024013;28;20287;-72
2023/07/18 07:16:42;;;;;;;8.00;1.92;;;;;;;;;;5025481;28;20025;-72
2023/07/18 07:19:07;;;;;;;4.83;2.03;;;;;;;;;;5036138;28;20394;-72
2023/07/18 07:21:33;;;;;;;8.30;1.80;;;;;;;;;;5029342;28;20280;-72
2023/07/18 07:23:58;;;;;;;6.85;1.38;;;;;;;;;;5037410;28;20271;-72
2023/07/18 07:26:24;;;;;;;3.63;1.88;;;;;;;;;;5033462;28;20024;-73
2023/07/18 07:28:49;;;;;;;5.57;1.58;;;;;;;;;;5035169;28;20462;-72
2023/07/18 07:31:15;;;;;;;5.35;1.63;;;;;;;;;;5034091;28;20021;-72
2023/07/18 07:33:40;;;;;;;3.83;1.58;;;;;;;;;;5031670;28;20057;-72
2023/07/18 07:36:05;;;;;;;4.00;1.25;;;;;;;;;;5032926;28;20022;-73
2023/07/18 07:38:30;;;;;;;4.27;1.63;;;;;;;;;;5033300;28;20018;-72
2023/07/18 07:40:55;;;;;;;2.47;1.20;;;;;;;;;;5031788;28;20268;-72
2023/07/18 07:43:21;;;;;;;8.90;1.77;;;;;;;;;;5035542;28;20373;-73
2023/07/18 07:45:46;;;;;;;6.53;1.20;;;;;;;;;;5031377;28;20310;-73
2023/07/18 07:48:11;;;;;;;2.93;1.20;;;;;;;;;;5030767;28;20268;-73
2023/07/18 07:50:36;;;;;;;2.63;1.07;;;;;;;;;;5032821;28;20267;-73
2023/07/18 07:53:01;;;;;;;5.83;1.10;;;;;;;;;;5036575;28;20026;-73
2023/07/18 07:55:27;;;;;;;3.45;1.10;;;;;;;;;;5031851;28;20112;-73
2023/07/18 07:57:53;;;;;;;6.70;1.63;;;;;;;;;;5032714;28;20017;-73
2023/07/18 08:00:19;;;;;;;4.67;1.40;;;;;;;;;;5031454;28;20489;-73
2023/07/18 08:02:44;;;;;;;4.85;1.40;;;;;;;;;;5030799;28;20275;-73
2023/07/18 08:05:09;;;;;;;5.60;2.13;;;;;;;;;;5032220;28;20164;-73
2023/07/18 08:07:35;;;;;;;5.57;1.37;;;;;;;;;;5032815;28;20025;-73
2023/07/18 08:10:00;;;;;;;4.90;1.67;;;;;;;;;;5030704;28;20056;-73
2023/07/18 08:12:26;;;;;;;3.30;1.07;;;;;;;;;;5028654;28;20017;-73
2023/07/18 08:14:51;;;;;;;2.92;1.10;;;;;;;;;;5033486;28;20124;-73
2023/07/18 08:17:16;;;;;;;3.83;1.03;;;;;;;;;;5033474;28;20022;-73
2023/07/18 08:19:42;;;;;;;3.53;1.23;;;;;;;;;;5033802;28;20100;-73
2023/07/18 08:22:08;;;;;;;6.30;1.57;;;;;;;;;;5031440;28;20019;-73
2023/07/18 08:24:34;;;;;;;4.60;1.52;;;;;;;;;;5019980;28;20269;-73
2023/07/18 08:26:59;;;;;;;4.10;1.50;;;;;;;;;;5031400;28;20079;-73
2023/07/18 08:29:26;;;;;;;4.70;1.60;;;;;;;;;;5034346;28;20815;-73
2023/07/18 08:31:52;;;;;;;3.42;1.40;;;;;;;;;;5030280;28;20268;-73
2023/07/18 08:34:17;;;;;;;5.82;1.67;;;;;;;;;;5022078;28;20041;-73
2023/07/18 08:36:43;;;;;;;3.63;1.50;;;;;;;;;;5039054;28;20061;-73
2023/07/18 08:39:08;;;;;;;2.85;0.95;;;;;;;;;;5038843;28;20030;-73
2023/07/18 08:41:33;;;;;;;3.87;1.50;;;;;;;;;;5034567;28;20458;-73
2023/07/18 08:43:59;;;;;;;6.35;1.17;;;;;;;;;;5034269;28;20276;-73
2023/07/18 08:46:25;;;;;;;3.13;1.27;;;;;;;;;;5038581;28;20040;-73
2023/07/18 08:48:50;;;;;;;9.00;1.40;;;;;;;;;;5037932;28;20039;-73
2023/07/18 08:51:15;;;;;;;7.40;1.48;;;;;;;;;;5036955;28;20021;-72
2023/07/18 08:53:41;;;;;;;4.93;1.20;;;;;;;;;;5037610;28;20420;-72
2023/07/18 08:56:09;;;;;;;3.67;1.55;;;;;;;;;;5026345;28;20788;-73
2023/07/18 08:58:38;;;;;;;2.58;1.05;;;;;;;;;;5027282;28;20021;-73
2023/07/18 09:01:09;;;;;;;2.92;1.42;;;;;;;;;;5028059;28;20021;-73
2023/07/18 09:03:35;;;;;;;4.93;1.27;;;;;;;;;;5029086;28;20024;-72
2023/07/18 09:06:03;;;;;;;3.53;1.20;;;;;;;;;;5030719;28;20029;-73
2023/07/18 09:08:40;;;;;;;4.18;1.20;;;;;;;;;;5031216;28;20021;-72
2023/07/18 09:11:06;;;;;;;4.60;1.70;;;;;;;;;;5028751;28;20101;-72
2023/07/18 09:13:36;;;;;;;8.07;1.90;;;;;;;;;;5030932;28;20018;-73
2023/07/18 09:16:10;;;;;;;6.22;1.67;;;;;;;;;;5030015;28;20033;-73
2023/07/18 09:18:35;;;;;;;6.15;1.63;;;;;;;;;;5028092;28;20022;-73
2023/07/18 09:21:08;;;;;;;7.30;1.25;;;;;;;;;;5027843;28;20023;-73
2023/07/18 09:23:38;;;;;;;3.03;0.85;;;;;;;;;;5026551;28;20621;-73
2023/07/18 09:26:07;;;;;;;5.00;1.30;;;;;;;;;;5026455;28;20109;-73
2023/07/18 09:28:33;;;;;;;4.90;1.92;;;;;;;;;;5025156;28;20029;-73
2023/07/18 09:30:58;;;;;;;9.27;1.58;;;;;;;;;;5027071;28;20391;-73
2023/07/18 09:33:24;;;;;;;5.82;1.63;;;;;;;;;;5032921;28;20040;-73
2023/07/18 09:35:49;;;;;;;6.20;1.90;;;;;;;;;;5030736;28;20364;-72
2023/07/18 09:38:15;;;;;;;4.47;1.48;;;;;;;;;;5030147;28;20028;-72
2023/07/18 09:40:40;;;;;;;5.10;1.57;;;;;;;;;;5027964;28;20064;-72
2023/07/18 09:43:05;;;;;;;4.68;1.50;;;;;;;;;;5027776;28;20272;-72
2023/07/18 09:45:31;;;;;;;5.13;1.50;;;;;;;;;;5029659;28;20487;-73
2023/07/18 09:47:57;;;;;;;7.10;1.63;;;;;;;;;;5034555;28;20263;-73
2023/07/18 09:50:23;;;;;;;4.47;1.58;;;;;;;;;;5031214;28;21853;-73
2023/07/18 09:52:49;;;;;;;7.80;1.73;;;;;;;;;;5030685;28;20037;-73
2023/07/18 09:55:18;;;;;;;3.90;1.70;;;;;;;;;;5031329;28;20025;-73
2023/07/18 09:57:43;;;;;;;5.95;1.70;;;;;;;;;;5028405;28;20019;-73
2023/07/18 10:00:11;;;;;;;4.90;1.63;;;;;;;;;;5030444;28;20030;-73
2023/07/18 10:02:37;;;;;;;5.60;1.70;;;;;;;;;;5031717;28;20672;-73
2023/07/18 10:05:03;;;;;;;4.85;2.05;;;;;;;;;;5030656;28;20021;-72
2023/07/18 10:07:30;;;;;;;4.72;2.08;;;;;;;;;;5030813;28;20025;-72
2023/07/18 10:09:56;;;;;;;3.58;1.42;;;;;;;;;;5030581;28;20021;-73
2023/07/18 10:12:21;;;;;;;4.65;1.85;;;;;;;;;;5030685;28;20048;-73
2023/07/18 10:15:05;;;;;;;4.20;1.92;;;;;;;;;;5030474;28;20479;-73
2023/07/18 10:17:31;;;;;;;7.25;1.75;;;;;;;;;;5030015;28;20128;-73
2023/07/18 10:19:56;;;;;;;4.50;1.63;;;;;;;;;;5034290;28;20109;-73
2023/07/18 10:22:28;;;;;;;5.43;1.83;;;;;;;;;;5030010;28;20025;-73
2023/07/18 10:25:06;;;;;;;3.63;1.60;;;;;;;;;;5035309;28;20068;-73
2023/07/18 10:27:39;;;;;;;5.75;2.05;;;;;;;;;;5030170;28;20017;-73
2023/07/18 10:30:06;;;;;;;4.25;2.13;;;;;;;;;;5028643;28;20144;-73
2023/07/18 10:32:32;;;;;;;8.88;2.05;;;;;;;;;;5030855;28;20021;-73
2023/07/18 10:34:58;;;;;;;8.55;1.83;;;;;;;;;;5025520;28;20028;-73
2023/07/18 10:37:26;;;;;;;5.97;2.05;;;;;;;;;;5031653;28;20022;-72
2023/07/18 10:39:52;;;;;;;4.95;2.05;;;;;;;;;;5029893;28;20030;-72
2023/07/18 10:42:21;;;;;;;4.97;2.05;;;;;;;;;;5026292;28;20029;-72
2023/07/18 10:44:47;;;;;;;4.50;1.73;;;;;;;;;;5026288;28;20025;-72
2023/07/18 10:47:15;;;;;;;4.47;1.77;;;;;;;;;;5029798;28;20071;-72
2023/07/18 10:49:42;;;;;;;3.25;1.98;;;;;;;;;;5029913;28;20024;-72
2023/07/18 10:52:07;;;;;;;5.35;1.80;;;;;;;;;;5031034;28;20651;-72
2023/07/18 10:54:32;;;;;;;9.15;2.17;;;;;;;;;;5032708;28;20045;-72
2023/07/18 10:56:58;;;;;;;3.60;1.80;;;;;;;;;;5028451;28;20130;-72
2023/07/18 10:59:23;;;;;;;5.32;1.67;;;;;;;;;;5020123;28;20030;-72
2023/07/18 11:01:49;;;;;;;6.50;1.80;;;;;;;;;;5032256;28;20018;-72
2023/07/18 11:04:14;;;;;;;6.65;1.85;;;;;;;;;;5027427;28;20283;-72
2023/07/18 11:06:49;;;;;;;6.90;2.10;;;;;;;;;;5028421;28;20025;-72
2023/07/18 11:09:14;;;;;;;8.20;2.08;;;;;;;;;;5023313;28;20280;-72
2023/07/18 11:11:40;;;;;;;7.70;2.10;;;;;;;;;;5024868;28;20029;-72
2023/07/18 11:14:06;;;;;;;5.38;1.88;;;;;;;;;;5026454;28;20334;-72
2023/07/18 11:16:31;;;;;;;5.25;1.80;;;;;;;;;;5021628;28;20187;-72
2023/07/18 11:18:59;;;;;;;11.80;1.97;;;;;;;;;;5029694;28;20017;-72
2023/07/18 11:21:24;;;;;;;5.95;2.00;;;;;;;;;;5030151;28;21633;-72
2023/07/18 11:23:49;;;;;;;4.25;1.83;;;;;;;;;;5028211;28;20022;-72
2023/07/18 11:26:16;;;;;;;3.87;1.97;;;;;;;;;;5027683;28;20162;-72
2023/07/18 11:28:42;;;;;;;6.32;1.90;;;;;;;;;;5032814;28;20283;-72
2023/07/18 11:31:20;;;;;;;8.02;2.60;;;;;;;;;;5028687;28;20032;-72
2023/07/18 11:33:52;;;;;;;6.78;1.92;;;;;;;;;;5027303;28;20036;-72
2023/07/18 11:36:17;;;;;;;10.02;2.58;;;;;;;;;;5033052;28;20033;-72
2023/07/18 11:38:44;;;;;;;7.45;2.58;;;;;;;;;;5032146;28;20021;-72
2023/07/18 11:41:12;;;;;;;9.25;2.70;;;;;;;;;;5027750;28;20018;-71
2023/07/18 11:43:38;;;;;;;6.72;2.00;;;;;;;;;;5031268;28;20013;-72
2023/07/18 11:46:03;;;;;;;11.30;2.38;;;;;;;;;;5030587;28;20436;-72
2023/07/18 11:48:29;;;;;;;7.00;2.77;;;;;;;;;;5032050;28;20028;-72
2023/07/18 11:50:54;;;;;;;5.07;2.03;;;;;;;;;;5031747;28;20272;-72
2023/07/18 11:53:26;;;;;;;6.28;2.35;;;;;;;;;;5027464;28;20025;-72
2023/07/18 11:55:52;;;;;;;4.75;1.85;;;;;;;;;;5029883;28;20017;-72
2023/07/18 11:58:17;;;;;;;11.63;2.90;;;;;;;;;;5029557;28;20092;-72
2023/07/18 12:00:42;;;;;;;5.50;2.40;;;;;;;;;;5030381;28;20101;-72
2023/07/18 12:03:07;;;;;;;5.32;2.08;;;;;;;;;;5042700;28;20010;-72
2023/07/18 12:05:33;;;;;;;6.30;2.90;;;;;;;;;;5028364;28;20057;-72
2023/07/18 12:07:58;;;;;;;6.33;2.10;;;;;;;;;;5033254;28;20009;-72
2023/07/18 12:10:23;;;;;;;7.40;2.33;;;;;;;;;;5030015;28;20033;-72
2023/07/18 12:12:48;;;;;;;10.48;2.38;;;;;;;;;;5036352;28;20067;-72
2023/07/18 12:15:14;;;;;;;4.72;2.30;;;;;;;;;;5029741;28;20029;-72
2023/07/18 12:17:39;;;;;;;9.87;2.97;;;;;;;;;;5028848;28;20080;-72
2023/07/18 12:20:05;;;;;;;4.47;2.10;;;;;;;;;;5031788;28;20037;-72
2023/07/18 12:22:31;;;;;;;5.47;2.08;;;;;;;;;;5028511;28;20261;-72
2023/07/18 12:24:56;;;;;;;4.93;1.80;;;;;;;;;;5033982;28;20067;-72
2023/07/18 12:27:21;;;;;;;8.97;2.87;;;;;;;;;;5031674;28;20521;-72
2023/07/18 12:29:47;;;;;;;11.07;2.70;;;;;;;;;;5025250;28;20060;-72
2023/07/18 12:32:12;;;;;;;7.60;2.20;;;;;;;;;;5032285;28;20086;-72
2023/07/18 12:34:38;;;;;;;3.67;2.10;;;;;;;;;;5025893;28;20040;-72
2023/07/18 12:37:04;;;;;;;8.25;1.90;;;;;;;;;;5025906;28;20378;-72
2023/07/18 12:39:29;;;;;;;5.78;2.35;;;;;;;;;;5028418;28;20096;-72
2023/07/18 12:41:55;;;;;;;7.80;3.30;;;;;;;;;;5033418;28;20030;-72
2023/07/18 12:44:20;;;;;;;3.13;1.70;;;;;;;;;;5027763;28;20283;-72
2023/07/18 12:46:48;;;;;;;6.35;1.95;;;;;;;;;;5026143;28;20021;-72
2023/07/18 12:49:14;;;;;;;3.50;1.75;;;;;;;;;;5028648;28;20482;-72
2023/07/18 12:51:42;;;;;;;6.78;2.40;;;;;;;;;;5023684;28;20029;-72
2023/07/18 12:54:08;;;;;;;7.63;2.95;;;;;;;;;;5028320;28;20026;-73
2023/07/18 12:56:33;;;;;;;6.65;1.92;;;;;;;;;;5026771;28;20388;-73
2023/07/18 12:58:59;;;;;;;9.68;2.28;;;;;;;;;;5022929;28;20021;-73
2023/07/18 13:01:24;;;;;;;5.45;2.45;;;;;;;;;;5027212;28;20033;-73
2023/07/18 13:03:49;;;;;;;8.30;2.38;;;;;;;;;;5023820;28;20013;-73
2023/07/18 13:06:14;;;;;;;4.73;2.30;;;;;;;;;;5024900;28;20075;-73
2023/07/18 13:08:39;;;;;;;2.07;1.33;;;;;;;;;;5029701;28;20397;-73
2023/07/18 13:11:05;;;;;;;7.73;2.47;;;;;;;;;;5031035;28;20025;-72
2023/07/18 13:13:30;;;;;;;18.23;4.57;;;;;;;;;;5029858;28;20355;-72
2023/07/18 13:15:55;;;;;;;8.40;2.27;;;;;;;;;;5032211;28;20036;-73
2023/07/18 13:18:20;;;;;;;6.97;1.90;;;;;;;;;;5027368;28;20502;-73
2023/07/18 13:20:46;;;;;;;7.80;2.03;;;;;;;;;;5030822;28;20013;-73
2023/07/18 13:23:11;;;;;;;7.87;2.00;;;;;;;;;;5030013;28;20025;-73
2023/07/18 13:25:36;;;;;;;5.37;2.10;;;;;;;;;;5028850;28;20171;-73
2023/07/18 13:28:01;;;;;;;6.27;2.03;;;;;;;;;;5027845;28;20272;-73
2023/07/18 13:30:26;;;;;;;4.50;2.23;;;;;;;;;;5027948;28;20545;-73
2023/07/18 13:32:52;;;;;;;12.50;2.40;;;;;;;;;;5029582;28;20413;-73
2023/07/18 13:35:17;;;;;;;7.57;2.40;;;;;;;;;;5029119;28;20657;-73
2023/07/18 13:37:42;;;;;;;6.33;2.17;;;;;;;;;;5030177;28;20021;-73
2023/07/18 13:40:07;;;;;;;7.00;1.90;;;;;;;;;;5023949;28;20276;-73
2023/07/18 13:42:33;;;;;;;4.22;2.30;;;;;;;;;;5028854;28;20048;-73
2023/07/18 13:44:58;;;;;;;4.13;1.93;;;;;;;;;;5027054;28;20028;-73
2023/07/18 13:47:23;;;;;;;11.70;2.13;;;;;;;;;;5025799;28;20277;-72
2023/07/18 13:49:49;;;;;;;5.20;2.13;;;;;;;;;;5026373;28;20474;-72
2023/07/18 13:52:14;;;;;;;4.32;2.13;;;;;;;;;;5024770;28;20394;-72
2023/07/18 13:54:40;;;;;;;4.53;1.80;;;;;;;;;;5022581;28;20030;-73
2023/07/18 13:57:05;;;;;;;5.15;2.08;;;;;;;;;;5029061;28;20771;-73
2023/07/18 13:59:30;;;;;;;8.07;1.97;;;;;;;;;;5028930;28;20398;-73
2023/07/18 14:01:55;;;;;;;6.13;1.63;;;;;;;;;;5030828;28;20310;-73
2023/07/18 14:04:20;;;;;;;2.43;1.53;;;;;;;;;;5027812;28;20041;-73
2023/07/18 14:06:45;;;;;;;5.93;2.13;;;;;;;;;;5025681;28;20022;-73
2023/07/18 14:09:11;;;;;;;6.90;2.00;;;;;;;;;;5026224;28;20322;-73
2023/07/18 14:11:36;;;;;;;4.27;2.17;;;;;;;;;;5027702;28;20334;-73
2023/07/18 14:14:01;;;;;;;7.32;2.13;;;;;;;;;;5023326;28;20612;-73
2023/07/18 14:16:27;;;;;;;6.53;1.88;;;;;;;;;;5027550;28;20022;-73
2023/07/18 14:18:55;;;;;;;4.53;1.30;;;;;;;;;;5027268;28;20030;-73
2023/07/18 14:21:21;;;;;;;9.05;1.77;;;;;;;;;;5026451;28;20021;-73
2023/07/18 14:23:46;;;;;;;5.33;1.77;;;;;;;;;;5027151;28;20036;-73
2023/07/18 14:26:11;;;;;;;7.80;2.07;;;;;;;;;;5027627;28;20068;-72
2023/07/18 14:28:36;;;;;;;6.47;2.30;;;;;;;;;;5031798;28;20060;-73
2023/07/18 14:31:01;;;;;;;5.90;2.00;;;;;;;;;;5031749;28;20075;-73
2023/07/18 14:33:27;;;;;;;5.07;2.27;;;;;;;;;;5022044;28;20637;-73
2023/07/18 14:35:52;;;;;;;6.03;2.13;;;;;;;;;;5027822;28;20288;-73